Time;durP1;ratioP1;P1;durP2;ratioP2;P2;SDS_P1;SDS_P2;PMS_P1;PMS_P2;Temp;Humidity;BMP_temperature;BMP_pressure;BME280_temperature;BME280_humidity;BME280_pressure;Samples;Min_cycle;Max_cycle;Signal;HPM_P1;HPM_P2
2022/09/01 00:04:12;;;;;;;11.02;8.32;;;21.50;99.90;;;;;;10006963;28;20034;-61
2022/09/01 00:09:05;;;;;;;11.18;8.82;;;21.30;99.90;;;;;;10003085;28;20025;-62
2022/09/01 00:14:00;;;;;;;11.13;8.25;;;21.30;99.90;;;;;;10002955;28;20049;-64
2022/09/01 00:18:53;;;;;;;13.10;7.85;;;21.20;99.90;;;;;;10013761;28;20366;-62
2022/09/01 00:23:44;;;;;;;12.50;9.18;;;21.00;99.90;;;;;;10012196;28;20042;-62
2022/09/01 00:28:36;;;;;;;13.00;7.57;;;20.90;99.90;;;;;;10013577;28;20018;-62
2022/09/01 00:33:27;;;;;;;12.90;7.70;;;21.00;99.90;;;;;;10013186;28;20041;-63
2022/09/01 00:38:17;;;;;;;10.75;7.43;;;20.80;99.90;;;;;;10012527;28;20030;-61
2022/09/01 00:43:22;;;;;;;9.40;6.68;;;20.80;99.90;;;;;;10013760;28;20464;-63
2022/09/01 00:48:13;;;;;;;9.37;6.93;;;20.60;99.90;;;;;;10012530;28;20574;-62
2022/09/01 00:53:07;;;;;;;8.98;6.30;;;20.40;99.90;;;;;;10009385;28;20246;-62
2022/09/01 00:58:00;;;;;;;11.27;6.20;;;20.40;99.90;;;;;;10012682;28;20045;-60
2022/09/01 01:02:56;;;;;;;8.07;5.45;;;20.30;99.90;;;;;;10012457;28;20077;-61
2022/09/01 01:07:48;;;;;;;9.13;5.60;;;20.40;99.90;;;;;;10012389;28;20511;-63
2022/09/01 01:12:39;;;;;;;9.65;5.78;;;20.30;99.90;;;;;;10025723;28;20049;-61
2022/09/01 01:17:29;;;;;;;8.73;5.28;;;20.20;99.90;;;;;;10021750;28;20495;-62
2022/09/01 01:23:04;;;;;;;6.10;4.72;;;20.20;99.90;;;;;;10019149;28;20032;-64
2022/09/01 01:28:20;;;;;;;9.68;5.35;;;20.30;99.90;;;;;;10018715;28;20065;-61
2022/09/01 01:33:11;;;;;;;6.00;4.85;;;20.10;99.90;;;;;;10017638;28;20055;-62
2022/09/01 01:38:06;;;;;;;8.50;5.47;;;20.00;99.90;;;;;;10019092;28;20034;-61
2022/09/01 01:42:59;;;;;;;7.85;5.70;;;20.00;99.90;;;;;;10018080;28;20212;-62
2022/09/01 01:47:52;;;;;;;6.07;4.70;;;19.80;99.90;;;;;;10008913;28;20618;-62
2022/09/01 01:52:42;;;;;;;6.88;4.10;;;19.80;99.90;;;;;;10005070;28;20053;-63
2022/09/01 01:57:34;;;;;;;5.32;3.92;;;19.80;99.90;;;;;;10017628;28;20057;-60
2022/09/01 02:02:24;;;;;;;6.53;4.60;;;19.70;99.90;;;;;;10009537;28;20014;-62
2022/09/01 02:07:16;;;;;;;5.93;4.32;;;19.70;99.90;;;;;;10017914;28;20022;-62
2022/09/01 02:12:07;;;;;;;7.53;4.75;;;19.70;99.90;;;;;;9997786;28;20165;-63
2022/09/01 02:17:00;;;;;;;10.80;4.55;;;19.50;99.90;;;;;;10016549;28;20244;-62
2022/09/01 02:21:54;;;;;;;6.05;4.47;;;19.40;99.90;;;;;;10016739;28;20048;-60
2022/09/01 02:26:46;;;;;;;10.23;4.30;;;19.40;99.90;;;;;;10017307;28;20042;-68
2022/09/01 02:31:40;;;;;;;5.78;4.07;;;19.30;99.90;;;;;;10012826;28;20018;-62
2022/09/01 02:36:36;;;;;;;5.10;4.10;;;19.30;99.90;;;;;;10016690;28;20037;-63
2022/09/01 02:41:31;;;;;;;5.82;3.58;;;19.40;99.90;;;;;;10017184;28;20026;-62
2022/09/01 02:46:22;;;;;;;4.50;3.42;;;19.40;99.90;;;;;;10017220;28;20396;-73
2022/09/01 02:51:17;;;;;;;4.43;4.03;;;19.30;99.90;;;;;;10021459;28;20528;-66
2022/09/01 02:56:12;;;;;;;4.95;3.95;;;19.20;99.90;;;;;;10016610;28;20038;-68
2022/09/01 03:01:03;;;;;;;5.53;3.40;;;19.00;99.90;;;;;;10016480;28;20584;-61
2022/09/01 03:05:55;;;;;;;7.82;3.83;;;19.00;99.90;;;;;;10013904;28;20161;-65
2022/09/01 03:10:46;;;;;;;6.63;4.22;;;19.00;99.90;;;;;;10007565;28;20133;-62
2022/09/01 03:15:37;;;;;;;4.45;3.08;;;19.10;99.90;;;;;;10014987;28;20412;-62
2022/09/01 03:20:32;;;;;;;4.95;3.35;;;19.00;99.90;;;;;;10015475;28;20504;-63
2022/09/01 03:25:24;;;;;;;;;;;18.90;99.90;;;;;;9997360;28;20393;-63
2022/09/01 03:30:15;;;;;;;4.25;2.92;;;18.80;99.90;;;;;;10014385;28;20537;-63
2022/09/01 03:35:07;;;;;;;5.47;3.47;;;18.80;99.90;;;;;;10013838;28;20092;-64
2022/09/01 03:39:58;;;;;;;6.05;3.03;;;18.80;99.90;;;;;;10014156;28;20034;-62
2022/09/01 03:44:50;;;;;;;3.72;3.17;;;18.80;99.90;;;;;;10014412;28;20029;-61
2022/09/01 03:49:42;;;;;;;5.28;3.20;;;18.80;99.90;;;;;;10020069;28;20046;-65
2022/09/01 03:54:33;;;;;;;4.20;3.50;;;18.70;99.90;;;;;;10011916;28;20044;-62
2022/09/01 03:59:24;;;;;;;3.90;3.42;;;18.70;99.90;;;;;;10021249;28;20010;-61
2022/09/01 04:04:15;;;;;;;6.22;3.45;;;18.80;99.90;;;;;;10017806;28;20041;-61
2022/09/01 04:09:06;;;;;;;5.28;3.28;;;18.60;99.90;;;;;;10004356;28;20339;-64
2022/09/01 04:13:57;;;;;;;5.97;3.42;;;18.60;99.90;;;;;;10012478;28;20125;-61
2022/09/01 04:18:49;;;;;;;7.03;3.45;;;18.60;99.90;;;;;;10012771;28;20037;-61
2022/09/01 04:23:41;;;;;;;5.50;3.65;;;18.60;99.90;;;;;;9996986;28;20547;-62
2022/09/01 04:28:35;;;;;;;6.55;3.75;;;18.60;99.90;;;;;;9996514;28;20041;-62
2022/09/01 04:33:38;;;;;;;6.22;3.45;;;18.60;99.90;;;;;;10013400;28;20682;-63
2022/09/01 04:38:29;;;;;;;7.18;3.72;;;18.50;99.90;;;;;;10005875;28;20030;-62
2022/09/01 04:43:20;;;;;;;4.88;3.08;;;18.40;99.90;;;;;;10014033;28;20030;-68
2022/09/01 04:48:10;;;;;;;5.25;4.25;;;18.50;99.90;;;;;;10019788;28;20061;-63
2022/09/01 04:53:04;;;;;;;6.13;3.35;;;18.50;99.90;;;;;;10008494;28;20096;-61
2022/09/01 04:58:00;;;;;;;6.82;4.28;;;18.40;99.90;;;;;;10020094;28;20076;-61
2022/09/01 05:02:54;;;;;;;4.45;3.92;;;18.30;99.90;;;;;;10002498;28;20477;-64
2022/09/01 05:07:45;;;;;;;4.25;3.28;;;18.30;99.90;;;;;;9998985;28;20037;-64
2022/09/01 05:12:36;;;;;;;5.75;4.03;;;18.30;99.90;;;;;;10019744;28;20017;-62
2022/09/01 05:17:27;;;;;;;4.70;3.42;;;18.20;99.90;;;;;;10014690;28;20508;-61
2022/09/01 05:22:20;;;;;;;5.70;3.45;;;18.30;99.90;;;;;;10020555;28;20088;-60
2022/09/01 05:27:13;;;;;;;4.53;4.03;;;18.20;99.90;;;;;;10021730;28;20662;-68
2022/09/01 05:32:08;;;;;;;4.85;3.80;;;18.40;99.90;;;;;;10013865;28;20097;-63
2022/09/01 05:36:59;;;;;;;;;;;18.30;99.90;;;;;;10019611;28;20133;-60
2022/09/01 05:41:51;;;;;;;5.28;4.35;;;18.40;99.90;;;;;;10001598;28;19992;-67
2022/09/01 05:46:43;;;;;;;6.07;3.97;;;18.30;99.90;;;;;;10014836;28;20567;-66
2022/09/01 05:51:35;;;;;;;5.55;4.22;;;18.20;99.90;;;;;;10024707;28;20062;-63
2022/09/01 05:56:27;;;;;;;5.75;4.28;;;18.40;99.90;;;;;;10012938;28;20046;-61
2022/09/01 06:01:21;;;;;;;5.75;3.67;;;18.40;99.90;;;;;;10019613;28;20021;-61
2022/09/01 06:06:11;;;;;;;4.57;3.53;;;18.50;99.90;;;;;;10014437;28;20451;-60
2022/09/01 06:11:11;;;;;;;5.28;4.03;;;18.70;99.90;;;;;;10017347;28;20025;-62
2022/09/01 06:16:02;;;;;;;6.43;4.53;;;18.90;99.90;;;;;;10014369;28;20042;-63
2022/09/01 06:20:53;;;;;;;7.00;4.45;;;18.80;99.90;;;;;;10018074;28;20038;-63
2022/09/01 06:25:45;;;;;;;6.60;4.13;;;18.70;99.90;;;;;;10018404;28;20026;-62
2022/09/01 06:30:37;;;;;;;5.25;4.00;;;18.70;99.90;;;;;;10016105;28;20110;-60
2022/09/01 06:35:28;;;;;;;9.82;4.95;;;18.60;99.90;;;;;;10017691;28;20045;-62
2022/09/01 06:40:19;;;;;;;7.22;4.95;;;18.60;99.90;;;;;;10018849;28;20219;-61
2022/09/01 06:45:10;;;;;;;7.47;4.32;;;18.80;99.90;;;;;;10011279;28;20141;-63
2022/09/01 06:50:03;;;;;;;6.82;4.75;;;18.90;99.90;;;;;;10005162;28;20038;-62
2022/09/01 06:54:54;;;;;;;5.97;4.43;;;19.10;99.90;;;;;;9995488;28;20081;-60
2022/09/01 06:59:46;;;;;;;7.07;4.55;;;19.10;99.90;;;;;;10015214;28;20041;-60
2022/09/01 07:04:38;;;;;;;5.13;4.53;;;19.40;99.90;;;;;;10015322;28;20146;-63
2022/09/01 07:09:29;;;;;;;6.93;4.55;;;19.40;99.90;;;;;;9995993;28;20113;-61
2022/09/01 07:14:21;;;;;;;9.13;4.40;;;19.40;99.90;;;;;;10014483;28;20466;-61
2022/09/01 07:19:14;;;;;;;8.63;5.35;;;19.40;99.90;;;;;;10014700;28;20135;-61
2022/09/01 07:24:05;;;;;;;5.88;4.88;;;19.50;99.90;;;;;;10006375;28;20026;-62
2022/09/01 07:28:57;;;;;;;8.63;5.47;;;19.50;99.90;;;;;;10013449;28;20034;-62
2022/09/01 07:33:49;;;;;;;6.40;5.03;;;19.60;99.90;;;;;;10013413;28;20407;-61
2022/09/01 07:38:41;;;;;;;10.48;5.05;;;19.80;99.90;;;;;;10004889;28;20041;-62
2022/09/01 07:43:33;;;;;;;7.22;5.63;;;19.90;99.90;;;;;;10017125;28;20034;-61
2022/09/01 07:48:25;;;;;;;8.75;5.35;;;20.00;99.90;;;;;;10017316;28;20117;-64
2022/09/01 07:53:21;;;;;;;7.15;5.63;;;20.20;99.90;;;;;;10002591;28;20307;-62
2022/09/01 07:58:12;;;;;;;5.78;5.25;;;20.30;99.90;;;;;;10014476;28;20030;-61
2022/09/01 08:03:03;;;;;;;8.52;5.13;;;20.50;99.90;;;;;;10015787;28;20026;-70
2022/09/01 08:07:54;;;;;;;10.48;6.50;;;20.60;99.90;;;;;;10015650;28;20064;-64
2022/09/01 08:12:45;;;;;;;8.30;6.00;;;20.60;99.90;;;;;;10013848;28;20022;-61
2022/09/01 08:17:37;;;;;;;5.72;4.70;;;20.50;99.90;;;;;;10012935;28;20026;-66
2022/09/01 08:22:28;;;;;;;6.95;4.72;;;20.60;99.90;;;;;;10011037;28;20041;-64
2022/09/01 08:27:18;;;;;;;5.68;4.60;;;20.70;99.90;;;;;;10014694;28;20348;-62
2022/09/01 08:32:12;;;;;;;6.57;4.93;;;20.80;99.80;;;;;;10015382;28;20036;-61
2022/09/01 08:37:04;;;;;;;7.05;5.15;;;20.90;99.80;;;;;;10026519;22;20012;-66
2022/09/01 08:42:04;;;;;;;7.22;5.10;;;21.20;99.50;;;;;;10000491;28;20029;-66
2022/09/01 08:47:06;;;;;;;5.00;4.22;;;21.40;99.40;;;;;;10013028;28;20033;-65
2022/09/01 08:52:27;;;;;;;5.38;4.88;;;21.40;99.30;;;;;;10010234;28;20381;-65
2022/09/01 08:57:38;;;;;;;5.22;3.83;;;21.50;99.20;;;;;;9997615;28;20046;-65
2022/09/01 09:03:13;;;;;;;5.57;4.00;;;21.80;98.90;;;;;;10009019;28;20428;-65
2022/09/01 09:08:32;;;;;;;5.78;4.45;;;21.80;98.80;;;;;;10011984;28;20014;-65
2022/09/01 09:13:35;;;;;;;5.32;3.75;;;21.80;98.80;;;;;;10011792;28;20405;-65
2022/09/01 09:18:37;;;;;;;5.95;4.25;;;21.80;98.90;;;;;;10005622;28;20033;-65
2022/09/01 09:23:35;;;;;;;5.53;3.90;;;21.90;98.70;;;;;;9994818;28;20124;-66
2022/09/01 09:28:25;;;;;;;5.13;3.92;;;22.10;98.40;;;;;;10011388;28;20018;-66
2022/09/01 09:33:48;;;;;;;5.18;3.55;;;22.30;98.30;;;;;;10016064;28;20036;-65
2022/09/01 09:38:40;;;;;;;6.88;3.80;;;22.30;98.20;;;;;;9971337;28;20044;-66
2022/09/01 09:43:35;;;;;;;5.90;3.65;;;22.40;98.00;;;;;;10015880;28;20143;-66
2022/09/01 09:48:29;;;;;;;6.05;4.45;;;22.50;97.90;;;;;;10018405;28;20298;-66
2022/09/01 09:53:25;;;;;;;4.80;3.73;;;22.70;97.70;;;;;;10017174;28;20536;-66
2022/09/01 09:58:15;;;;;;;6.05;3.67;;;22.90;97.70;;;;;;10000271;28;20468;-65
2022/09/01 10:03:09;;;;;;;5.57;4.07;;;23.00;97.50;;;;;;10017739;28;20056;-65
2022/09/01 10:08:00;;;;;;;3.78;3.20;;;22.90;97.40;;;;;;10017757;28;20092;-66
2022/09/01 10:12:52;;;;;;;5.68;3.95;;;22.90;97.30;;;;;;10012217;28;20014;-66
2022/09/01 10:17:44;;;;;;;6.85;3.47;;;23.10;97.10;;;;;;10014363;28;20551;-66
2022/09/01 10:22:36;;;;;;;5.53;4.07;;;23.20;96.90;;;;;;10000210;28;20026;-66
2022/09/01 10:27:31;;;;;;;4.18;3.38;;;23.30;96.80;;;;;;10011835;28;20034;-66
2022/09/01 10:32:40;;;;;;;4.88;4.00;;;23.40;96.60;;;;;;10017249;28;20204;-67
2022/09/01 10:37:31;;;;;;;4.53;3.58;;;23.30;96.30;;;;;;10016213;28;20136;-65
2022/09/01 10:42:26;;;;;;;5.72;3.95;;;23.10;96.50;;;;;;10013928;28;20104;-65
2022/09/01 10:47:30;;;;;;;;;;;23.20;96.30;;;;;;10017136;28;20075;-65
2022/09/01 10:52:39;;;;;;;6.65;3.97;;;23.40;96.10;;;;;;10017692;28;20387;-66
2022/09/01 10:57:57;;;;;;;3.83;3.28;;;23.60;95.90;;;;;;10006832;28;20034;-67
2022/09/01 11:03:09;;;;;;;7.30;3.42;;;23.50;95.90;;;;;;10016158;28;20022;-65
2022/09/01 11:08:25;;;;;;;5.78;3.97;;;23.50;95.70;;;;;;10012713;28;20027;-65
2022/09/01 11:13:42;;;;;;;5.15;3.53;;;23.70;95.50;;;;;;10015310;28;20041;-65
2022/09/01 11:18:34;;;;;;;7.82;4.53;;;23.70;95.50;;;;;;10010134;28;20037;-66
2022/09/01 11:23:26;;;;;;;5.13;3.08;;;23.60;95.30;;;;;;10013555;28;20029;-66
2022/09/01 11:28:22;;;;;;;6.05;3.75;;;24.00;94.90;;;;;;10014548;28;20060;-66
2022/09/01 11:33:28;;;;;;;6.43;3.90;;;24.10;94.80;;;;;;10014413;28;20231;-66
2022/09/01 11:38:19;;;;;;;3.85;3.00;;;24.40;94.60;;;;;;10010382;28;20041;-66
2022/09/01 11:43:14;;;;;;;4.18;2.92;;;24.80;94.30;;;;;;10014103;28;20021;-65
2022/09/01 11:48:11;;;;;;;3.63;2.35;;;25.00;93.90;;;;;;10013566;28;20034;-65
2022/09/01 11:53:06;;;;;;;2.58;2.38;;;25.10;93.60;;;;;;10012193;28;20076;-67
2022/09/01 11:57:57;;;;;;;;;;;25.20;93.50;;;;;;10014119;28;20044;-66
2022/09/01 12:02:51;;;;;;;4.93;3.25;;;25.40;93.40;;;;;;10005221;28;20032;-65
2022/09/01 12:07:46;;;;;;;7.07;5.60;;;25.50;93.40;;;;;;10008000;28;20224;-65
2022/09/01 12:12:38;;;;;;;3.03;2.72;;;25.50;93.20;;;;;;10005320;28;20261;-66
2022/09/01 12:17:29;;;;;;;4.88;3.10;;;25.50;93.20;;;;;;10010175;28;20483;-65
2022/09/01 12:22:21;;;;;;;3.10;2.47;;;25.90;92.80;;;;;;10007028;28;20064;-66
2022/09/01 12:27:13;;;;;;;2.90;2.42;;;26.20;92.30;;;;;;10012113;28;20109;-66
2022/09/01 12:32:04;;;;;;;3.15;2.10;;;26.70;92.00;;;;;;9990827;28;20628;-65
2022/09/01 12:37:15;;;;;;;4.32;2.13;;;27.00;91.70;;;;;;10005999;28;20045;-65
2022/09/01 12:42:30;;;;;;;2.08;1.80;;;27.00;91.50;;;;;;9996309;28;20109;-65
2022/09/01 12:47:34;;;;;;;2.20;1.98;;;27.40;91.20;;;;;;10011516;28;20468;-66
2022/09/01 12:52:27;;;;;;;2.78;2.20;;;27.70;91.10;;;;;;10012340;28;20112;-65
2022/09/01 12:57:26;;;;;;;;;;;28.00;90.90;;;;;;10012964;28;20547;-65
2022/09/01 13:02:37;;;;;;;2.45;2.25;;;27.80;90.60;;;;;;10006980;28;19905;-66
2022/09/01 13:07:27;;;;;;;2.47;1.90;;;28.50;89.90;;;;;;10018168;28;20088;-66
2022/09/01 13:12:20;;;;;;;2.30;1.52;;;28.90;90.40;;;;;;10019440;28;20018;-65
2022/09/01 13:17:11;;;;;;;1.60;1.40;;;28.90;89.40;;;;;;10008676;28;20053;-65
2022/09/01 13:22:02;;;;;;;1.80;1.70;;;29.60;87.70;;;;;;10019194;28;20425;-65
2022/09/01 13:26:56;;;;;;;2.20;1.90;;;30.80;85.60;;;;;;10012699;28;20117;-65
2022/09/01 13:31:46;;;;;;;2.03;1.60;;;30.90;82.80;;;;;;10018590;28;20022;-65
2022/09/01 13:36:37;;;;;;;3.25;1.83;;;30.20;81.60;;;;;;10017824;28;20042;-66
2022/09/01 13:41:28;;;;;;;2.33;2.10;;;31.70;78.20;;;;;;10019367;28;20045;-66
2022/09/01 13:46:18;;;;;;;3.40;2.00;;;32.80;75.30;;;;;;10014634;28;20030;-66
2022/09/01 13:51:09;;;;;;;2.00;1.80;;;32.80;72.40;;;;;;10017644;28;20025;-66
2022/09/01 13:56:00;;;;;;;1.63;1.50;;;32.70;70.40;;;;;;10019256;28;20034;-65
2022/09/01 14:00:51;;;;;;;2.90;2.10;;;31.90;68.60;;;;;;9997090;28;20028;-66
2022/09/01 14:05:44;;;;;;;1.73;1.63;;;33.00;67.20;;;;;;10018592;28;20029;-66
2022/09/01 14:10:40;;;;;;;2.10;1.90;;;33.10;65.60;;;;;;9999369;28;20065;-64
2022/09/01 14:15:31;;;;;;;2.42;1.70;;;33.60;63.80;;;;;;10014733;28;20092;-64
2022/09/01 14:20:25;;;;;;;3.33;1.75;;;33.70;62.50;;;;;;10017653;28;20224;-64
2022/09/01 14:25:18;;;;;;;1.55;1.35;;;33.70;61.80;;;;;;10015542;28;20065;-65
2022/09/01 14:30:16;;;;;;;3.10;2.10;;;32.40;61.30;;;;;;10023903;28;20026;-66
2022/09/01 14:35:07;;;;;;;2.38;1.52;;;32.80;61.00;;;;;;10020846;28;20041;-65
2022/09/01 14:39:58;;;;;;;2.87;1.93;;;33.20;59.60;;;;;;10007657;28;20172;-66
2022/09/01 14:44:48;;;;;;;2.17;1.70;;;32.80;59.70;;;;;;10016701;28;20030;-66
2022/09/01 14:49:40;;;;;;;1.63;1.52;;;32.50;59.30;;;;;;10016452;28;20024;-65
2022/09/01 14:54:31;;;;;;;1.60;1.50;;;31.90;59.20;;;;;;10015541;28;20041;-64
2022/09/01 14:59:22;;;;;;;3.10;2.10;;;32.00;58.80;;;;;;10014559;28;20445;-66
2022/09/01 15:04:13;;;;;;;2.88;1.75;;;32.30;58.60;;;;;;9996931;28;20112;-66
2022/09/01 15:09:03;;;;;;;2.25;1.60;;;32.40;57.70;;;;;;10013754;28;20018;-66
2022/09/01 15:13:54;;;;;;;2.30;2.10;;;32.40;57.80;;;;;;10014135;28;20109;-65
2022/09/01 15:18:46;;;;;;;3.50;1.80;;;33.20;56.70;;;;;;10012315;28;20378;-65
2022/09/01 15:23:36;;;;;;;1.60;1.50;;;32.50;56.90;;;;;;10012891;28;20014;-66
2022/09/01 15:28:27;;;;;;;2.20;1.58;;;31.80;57.50;;;;;;10013949;28;20064;-66
2022/09/01 15:33:18;;;;;;;2.00;1.90;;;31.40;57.50;;;;;;10014606;28;20029;-66
2022/09/01 15:38:09;;;;;;;2.85;1.50;;;30.90;57.70;;;;;;10013745;28;20085;-65
2022/09/01 15:42:59;;;;;;;2.03;1.63;;;31.00;57.30;;;;;;10014911;28;20057;-65
2022/09/01 15:47:50;;;;;;;2.45;1.88;;;32.10;56.30;;;;;;10014046;28;20693;-65
2022/09/01 15:52:50;;;;;;;3.30;1.80;;;31.60;56.50;;;;;;10009519;28;20376;-66
2022/09/01 15:57:41;;;;;;;2.30;1.67;;;31.20;56.90;;;;;;10013129;28;20502;-67
2022/09/01 16:02:31;;;;;;;2.90;1.85;;;30.50;57.40;;;;;;10013687;28;20022;-66
2022/09/01 16:07:22;;;;;;;2.35;1.65;;;29.90;57.90;;;;;;10009315;28;20029;-67
2022/09/01 16:12:13;;;;;;;2.47;1.45;;;29.30;58.70;;;;;;10013532;28;20036;-67
2022/09/01 16:17:16;;;;;;;3.10;1.75;;;29.90;58.20;;;;;;10012583;28;20112;-65
2022/09/01 16:22:26;;;;;;;2.08;1.60;;;30.70;57.30;;;;;;10013348;28;20026;-65
2022/09/01 16:27:20;;;;;;;2.97;1.90;;;30.30;57.50;;;;;;9994804;28;20030;-65
2022/09/01 16:32:11;;;;;;;2.60;2.00;;;30.00;57.90;;;;;;10011797;28;20017;-66
2022/09/01 16:37:32;;;;;;;3.75;1.67;;;30.40;57.50;;;;;;10012451;28;20038;-66
2022/09/01 16:42:36;;;;;;;2.55;1.83;;;29.70;58.40;;;;;;10021358;28;20489;-66
2022/09/01 16:47:51;;;;;;;3.10;1.95;;;29.50;58.70;;;;;;10012189;28;20523;-66
2022/09/01 16:53:21;;;;;;;2.25;1.60;;;29.20;59.10;;;;;;10020866;28;20133;-66
2022/09/01 16:58:36;;;;;;;1.38;1.20;;;28.70;59.80;;;;;;9989990;28;20428;-64
2022/09/01 17:04:00;;;;;;;1.73;1.42;;;29.00;59.50;;;;;;10009791;28;20165;-65
2022/09/01 17:09:01;;;;;;;2.20;1.60;;;30.70;58.00;;;;;;9996845;28;20531;-65
2022/09/01 17:13:54;;;;;;;3.35;1.70;;;31.60;57.20;;;;;;9990029;28;20481;-65
2022/09/01 17:18:51;;;;;;;2.10;1.50;;;31.80;56.40;;;;;;10018284;28;20061;-67
2022/09/01 17:23:52;;;;;;;2.55;1.75;;;30.00;58.30;;;;;;10020047;28;20627;-65
2022/09/01 17:28:55;;;;;;;2.63;2.13;;;28.70;59.80;;;;;;9998671;28;20479;-66
2022/09/01 17:34:15;;;;;;;2.17;1.88;;;28.10;60.40;;;;;;10019124;28;20030;-66
2022/09/01 17:39:10;;;;;;;4.53;2.20;;;27.70;60.60;;;;;;10017833;28;20139;-66
2022/09/01 17:44:35;;;;;;;3.25;2.40;;;27.50;60.90;;;;;;10019041;28;20025;-66
2022/09/01 17:49:35;;;;;;;3.90;2.43;;;27.30;61.00;;;;;;10017548;28;20463;-66
2022/09/01 17:54:49;;;;;;;4.03;2.55;;;27.00;61.10;;;;;;10018319;28;20049;-67
2022/09/01 17:59:53;;;;;;;5.20;2.23;;;26.80;61.30;;;;;;10014199;28;20433;-66
2022/09/01 18:04:51;;;;;;;3.05;1.90;;;26.50;61.30;;;;;;10017922;28;20022;-66
2022/09/01 18:09:48;;;;;;;3.50;1.85;;;26.40;61.60;;;;;;10013069;28;20455;-67
2022/09/01 18:15:03;;;;;;;4.93;2.08;;;26.30;61.60;;;;;;10010501;28;20045;-66
2022/09/01 18:20:06;;;;;;;3.33;2.15;;;26.20;61.90;;;;;;9999441;28;20036;-65
2022/09/01 18:25:02;;;;;;;2.72;2.10;;;26.00;62.20;;;;;;9999424;28;20030;-67
2022/09/01 18:29:53;;;;;;;3.28;2.45;;;25.90;62.20;;;;;;10017061;28;20037;-67
2022/09/01 18:34:55;;;;;;;5.60;3.10;;;25.70;62.50;;;;;;10016907;28;20041;-67
2022/09/01 18:40:16;;;;;;;3.70;2.83;;;25.60;63.00;;;;;;10003813;28;20041;-66
2022/09/01 18:45:30;;;;;;;3.78;2.45;;;25.50;63.30;;;;;;10017019;28;20182;-65
2022/09/01 18:50:34;;;;;;;4.28;2.55;;;25.50;63.40;;;;;;10016259;28;20018;-67
2022/09/01 18:55:50;;;;;;;2.33;1.92;;;25.40;63.80;;;;;;10008611;28;20030;-65
2022/09/01 19:00:44;;;;;;;4.20;2.17;;;25.30;64.10;;;;;;10008873;28;20030;-66
2022/09/01 19:05:58;;;;;;;13.52;2.75;;;25.20;64.30;;;;;;10006492;28;20029;-67
2022/09/01 19:10:50;;;;;;;4.73;2.80;;;25.20;64.70;;;;;;10002544;28;20091;-70
2022/09/01 19:15:48;;;;;;;2.83;2.17;;;25.10;64.80;;;;;;10010108;28;20137;-66
2022/09/01 19:20:58;;;;;;;4.28;1.75;;;25.00;65.10;;;;;;9989694;28;20435;-66
2022/09/01 19:25:52;;;;;;;3.65;2.70;;;25.00;65.60;;;;;;10012013;28;20360;-66
2022/09/01 19:30:51;;;;;;;4.22;2.60;;;24.90;65.80;;;;;;10014937;28;20057;-66
2022/09/01 19:35:45;;;;;;;3.88;2.28;;;24.90;66.00;;;;;;10008944;28;20075;-66
2022/09/01 19:40:40;;;;;;;4.05;2.50;;;24.80;66.30;;;;;;10014408;28;20096;-66
2022/09/01 19:45:51;;;;;;;2.33;1.98;;;24.70;66.50;;;;;;10015245;28;20114;-67
2022/09/01 19:50:51;;;;;;;4.22;2.65;;;24.70;66.90;;;;;;10011889;28;20025;-67
2022/09/01 19:56:04;;;;;;;3.95;2.15;;;24.60;67.20;;;;;;10013802;28;20258;-67
2022/09/01 20:01:00;;;;;;;3.38;2.35;;;24.70;67.50;;;;;;10008949;28;20022;-68
2022/09/01 20:06:05;;;;;;;2.30;2.00;;;24.60;67.90;;;;;;10009412;28;20038;-67
2022/09/01 20:11:04;;;;;;;4.53;2.50;;;24.50;68.30;;;;;;10006681;28;20412;-65
2022/09/01 20:16:07;;;;;;;3.00;2.25;;;24.40;68.50;;;;;;10004247;28;20049;-66
2022/09/01 20:21:02;;;;;;;2.50;2.10;;;24.30;69.00;;;;;;10007152;28;20030;-67
2022/09/01 20:26:07;;;;;;;;;;;24.30;69.10;;;;;;9996335;28;20397;-67
2022/09/01 20:31:03;;;;;;;2.60;2.40;;;24.30;69.40;;;;;;10008452;28;19906;-67
2022/09/01 20:36:02;;;;;;;3.78;2.63;;;24.30;69.40;;;;;;10012989;28;20436;-67
2022/09/01 20:40:55;;;;;;;4.00;2.20;;;24.10;70.00;;;;;;10013148;28;20092;-66
2022/09/01 20:45:45;;;;;;;4.68;2.90;;;24.20;70.10;;;;;;9992472;28;20034;-65
2022/09/01 20:50:46;;;;;;;3.63;2.25;;;24.10;70.50;;;;;;10013375;28;20028;-66
2022/09/01 20:56:14;;;;;;;3.17;2.85;;;24.10;70.90;;;;;;10013102;28;20041;-67
2022/09/01 21:01:30;;;;;;;4.65;3.03;;;24.00;71.40;;;;;;10010255;28;20103;-67
2022/09/01 21:06:59;;;;;;;6.10;3.70;;;24.00;71.60;;;;;;10012729;28;20507;-65
2022/09/01 21:12:43;;;;;;;6.60;4.00;;;23.90;72.00;;;;;;10012067;28;20051;-66
2022/09/01 21:18:06;;;;;;;3.50;3.20;;;23.80;72.30;;;;;;9971111;28;20038;-66
2022/09/01 21:22:59;;;;;;;3.80;3.35;;;23.80;72.30;;;;;;9971867;28;20030;-66
2022/09/01 21:27:56;;;;;;;4.97;3.47;;;23.70;72.60;;;;;;10013697;28;20499;-66
2022/09/01 21:32:47;;;;;;;3.42;3.00;;;23.70;72.90;;;;;;10019368;28;20014;-66
2022/09/01 21:37:37;;;;;;;5.20;2.85;;;23.70;72.90;;;;;;10018937;28;20057;-66
2022/09/01 21:42:35;;;;;;;4.05;3.10;;;23.60;73.20;;;;;;10012286;28;20585;-66
2022/09/01 21:47:26;;;;;;;5.07;3.10;;;23.60;73.60;;;;;;10001590;28;20039;-67
2022/09/01 21:52:17;;;;;;;6.70;3.15;;;23.70;73.70;;;;;;10018756;28;20582;-67
2022/09/01 21:57:08;;;;;;;4.40;2.70;;;23.50;73.90;;;;;;10013919;28;20128;-66
2022/09/01 22:01:59;;;;;;;4.22;2.83;;;23.50;74.20;;;;;;10018534;28;20061;-67
2022/09/01 22:06:50;;;;;;;4.53;2.88;;;23.50;74.30;;;;;;10018280;28;20100;-67
2022/09/01 22:11:41;;;;;;;4.55;3.10;;;23.50;74.50;;;;;;10017541;28;20544;-68
2022/09/01 22:16:32;;;;;;;5.20;2.92;;;23.50;74.60;;;;;;10013911;28;20125;-66
2022/09/01 22:21:23;;;;;;;3.60;2.83;;;23.40;74.80;;;;;;10018443;28;20156;-66
2022/09/01 22:26:21;;;;;;;4.85;3.38;;;23.30;75.20;;;;;;10016657;28;20025;-66
2022/09/01 22:31:17;;;;;;;4.45;3.08;;;23.10;75.60;;;;;;10016702;28;20401;-66
2022/09/01 22:36:08;;;;;;;4.28;3.25;;;23.10;75.80;;;;;;10016653;28;20033;-67
2022/09/01 22:40:59;;;;;;;3.72;3.10;;;23.00;76.00;;;;;;10016389;28;20082;-66
2022/09/01 22:45:50;;;;;;;3.95;3.40;;;22.90;76.30;;;;;;10016697;28;20037;-67
2022/09/01 22:50:43;;;;;;;4.47;3.28;;;22.90;76.50;;;;;;10013095;28;20026;-66
2022/09/01 22:55:39;;;;;;;4.43;3.10;;;22.90;76.60;;;;;;10013995;28;20223;-66
2022/09/01 23:00:29;;;;;;;4.63;3.65;;;22.90;76.90;;;;;;9999229;28;20700;-66
2022/09/01 23:05:22;;;;;;;4.35;3.20;;;22.80;76.90;;;;;;10014871;28;20040;-66
2022/09/01 23:10:14;;;;;;;3.45;2.75;;;22.70;77.20;;;;;;10015611;28;20021;-67
2022/09/01 23:15:05;;;;;;;4.13;3.30;;;22.80;77.50;;;;;;10013109;28;20032;-66
2022/09/01 23:20:01;;;;;;;3.92;2.85;;;22.70;77.90;;;;;;10015518;28;20018;-66
2022/09/01 23:24:51;;;;;;;3.78;2.78;;;22.60;78.20;;;;;;10015239;28;20061;-67
2022/09/01 23:29:42;;;;;;;3.33;2.60;;;22.40;79.40;;;;;;10014783;28;20029;-67
2022/09/01 23:34:33;;;;;;;3.10;2.63;;;22.30;80.40;;;;;;10013141;28;20041;-66
2022/09/01 23:39:24;;;;;;;2.47;2.28;;;22.20;81.10;;;;;;10013811;28;20046;-67
2022/09/01 23:44:15;;;;;;;3.47;2.50;;;22.00;82.10;;;;;;10014418;28;20029;-66
2022/09/01 23:49:06;;;;;;;2.78;2.50;;;22.10;82.40;;;;;;10006732;28;20038;-65
2022/09/01 23:53:57;;;;;;;3.30;2.55;;;22.10;82.60;;;;;;9996496;28;20511;-66
2022/09/01 23:58:48;;;;;;;3.10;2.80;;;21.90;83.70;;;;;;10013702;28;20481;-66
